Akron Fulton International Airport
KAKR : now visible

Airfield :











YOU CAN JOIN US ON...

 
LOGIN :

Register | Disclaimer

   EN    FR    IT 

 









Legend :    VFR   Marginal VFR   IFR   Intensive IFR   Very Intensive IFR
Visi :
Ceiling :
>= 8 km
>= 3000ft
5 to 8 km
1000 to 3000 ft
1500m to 5 km
500 to 1000 ft
800 to 1500m
200 to 500 ft
< 800m
< 200 ft
Symbols :   Thunderstorms  Fog  Heavy snow  Heavy precipitations  Wind > 20 kt






- Airport Elevation : 1067 ft


KAKR - Akron Fulton International

CURRENT METAR :
  • 201120Z AUTO 01007KT 9SM OVC005 12/09 A3015 RMK AO2 CIG 004V008 T01170094

EXPIRED METARs :
  • 201054Z AUTO 02005KT 10SM BKN006 OVC009 12/09 A3014 RMK AO2 RAE28 SLP205 P0000 T01170094
  • 200954Z AUTO 35005KT 5SM -RA BR BKN005 OVC027 12/09 A3013 RMK AO2 SLP204 P0012 T01170094
  • 200932Z AUTO 36004KT 4SM -RA BR FEW005 OVC026 12/09 A3013 RMK AO2 P0012 T01170094
  • 200915Z AUTO 36005KT 2 1/2SM +RA BR SCT005 OVC022 12/10 A3012 RMK AO2 P0008 T01170100
  • 200902Z AUTO 36006KT 4SM -RA BR BKN005 BKN011 OVC022 12/10 A3012 RMK AO2 P0000 T01220100
  • 200854Z AUTO 36005KT 3SM RA BR SCT005 BKN017 OVC021 12/10 A3012 RMK AO2 SLP197 P0004 60011 T01220100 52002
  • 200841Z AUTO 36005KT 8SM -RA SCT005 OVC023 12/10 A3011 RMK AO2 P0002 T01220100
  • 200827Z AUTO 04003KT 5SM -RA BR BKN005 OVC025 12/10 A3011 RMK AO2 P0001 T01220100

TAF N/A
KZOB FIR / North America



MET'MAP, your aeronautical weather chart ! - Copyright ORBIFLY December 2007 - Disclaimer

ORBIFLY MET'MAP TEAM :

Programming & Development : Alexandra Zaïnal
Concept & original design : Baudouin d'Aumeries
Assistance for programming : Marc-Olivier Méhu
Technical & hardware support : Manuel Goepfert

Contact : metmap@orbifly.com




SOURCES & CREDITS :

   NOAA       Earth
Advisory